Time;durP1;ratioP1;P1;durP2;ratioP2;P2;SDS_P1;SDS_P2;PMS_P1;PMS_P2;Temp;Humidity;BMP_temperature;BMP_pressure;BME280_temperature;BME280_humidity;BME280_pressure;Samples;Min_cycle;Max_cycle;Signal;HPM_P1;HPM_P2
2022/03/01 00:00:32;;;;;;;19.83;15.52;;;;;;;5.01;51.49;102681.59;5114478;28;20030;-68
2022/03/01 00:02:58;;;;;;;24.42;16.45;;;;;;;4.97;51.99;102695.66;5094662;28;20040;-68
2022/03/01 00:05:23;;;;;;;23.58;16.00;;;;;;;4.69;52.80;102690.66;5093002;28;20028;-68
2022/03/01 00:07:52;;;;;;;22.90;16.10;;;;;;;4.92;52.48;102698.38;5094863;28;20485;-68
2022/03/01 00:10:17;;;;;;;22.88;16.40;;;;;;;4.90;52.34;102705.41;5094559;28;20024;-68
2022/03/01 00:12:43;;;;;;;23.00;16.50;;;;;;;4.83;52.35;102709.00;5109933;28;20081;-68
2022/03/01 00:15:09;;;;;;;20.95;15.90;;;;;;;4.72;53.42;102708.22;5092702;28;20028;-68
2022/03/01 00:17:35;;;;;;;25.60;16.48;;;;;;;4.65;53.06;102696.88;5094172;28;20024;-68
2022/03/01 00:20:01;;;;;;;24.70;17.05;;;;;;;4.70;53.52;102697.66;5100377;28;20030;-68
2022/03/01 00:22:27;;;;;;;22.95;16.88;;;;;;;4.44;53.40;102703.19;5098520;28;20057;-68
2022/03/01 00:24:56;;;;;;;20.85;15.95;;;;;;;4.46;53.48;102703.16;5092758;28;20028;-68
2022/03/01 00:27:21;;;;;;;22.23;15.93;;;;;;;4.57;53.00;102697.81;5099324;28;20027;-68
2022/03/01 00:29:47;;;;;;;21.63;16.08;;;;;;;4.35;53.47;102691.81;5094248;28;20490;-68
2022/03/01 00:32:12;;;;;;;22.38;16.33;;;;;;;4.27;54.39;102702.44;5092287;28;20040;-68
2022/03/01 00:34:38;;;;;;;24.15;16.40;;;;;;;4.22;55.27;102699.81;5100760;28;20098;-68
2022/03/01 00:37:04;;;;;;;25.08;16.10;;;;;;;4.28;53.01;102691.00;5093639;28;20483;-68
2022/03/01 00:39:30;;;;;;;21.67;16.30;;;;;;;4.44;53.09;102699.66;5102340;28;20086;-68
2022/03/01 00:41:58;;;;;;;21.40;16.08;;;;;;;4.36;53.85;102699.72;5078573;28;20088;-68
2022/03/01 00:44:23;;;;;;;22.38;15.68;;;;;;;4.23;53.89;102700.69;5093480;28;20059;-68
2022/03/01 00:46:49;;;;;;;23.55;16.35;;;;;;;4.21;54.98;102705.09;5094709;28;20016;-68
2022/03/01 00:49:15;;;;;;;22.77;16.17;;;;;;;4.10;55.37;102700.78;5093670;28;20438;-68
2022/03/01 00:51:42;;;;;;;22.05;15.30;;;;;;;4.15;54.44;102700.75;5096370;28;20344;-68
2022/03/01 00:54:08;;;;;;;21.40;15.75;;;;;;;4.03;54.64;102699.06;5093123;28;20027;-68
2022/03/01 00:56:34;;;;;;;21.52;15.93;;;;;;;4.05;54.70;102705.19;5092920;28;20032;-68
2022/03/01 00:59:00;;;;;;;19.98;16.15;;;;;;;3.95;55.54;102707.88;5092173;28;20028;-68
2022/03/01 01:01:28;;;;;;;21.50;15.40;;;;;;;4.04;54.43;102700.81;5093857;28;20032;-68
2022/03/01 01:03:53;;;;;;;20.63;15.82;;;;;;;4.07;54.18;102697.28;5093776;28;20023;-68
2022/03/01 01:06:19;;;;;;;19.85;15.68;;;;;;;3.87;54.73;102692.13;5091429;28;20077;-68
2022/03/01 01:08:44;;;;;;;24.65;16.08;;;;;;;3.82;54.99;102697.44;5092534;28;20081;-68
2022/03/01 01:11:10;;;;;;;24.65;16.73;;;;;;;3.73;56.00;102686.06;5108607;28;20023;-68
2022/03/01 01:13:35;;;;;;;21.85;16.15;;;;;;;3.85;55.83;102700.06;5112769;28;20493;-68
2022/03/01 01:16:01;;;;;;;21.13;16.05;;;;;;;3.76;55.63;102700.06;5092779;28;20055;-68
2022/03/01 01:18:26;;;;;;;21.02;16.27;;;;;;;3.69;55.71;102692.22;5075286;28;20429;-68
2022/03/01 01:20:53;;;;;;;21.63;16.08;;;;;;;3.71;56.41;102695.75;5091922;28;20027;-68
2022/03/01 01:23:19;;;;;;;23.67;16.55;;;;;;;3.64;56.51;102703.63;5091809;28;20065;-68
2022/03/01 01:25:45;;;;;;;24.50;16.02;;;;;;;3.58;55.87;102700.16;5093158;28;20038;-68
2022/03/01 01:28:13;;;;;;;20.83;16.67;;;;;;;3.71;55.08;102693.09;5092836;28;20111;-67
2022/03/01 01:30:41;;;;;;;22.10;16.02;;;;;;;3.64;55.75;102695.75;5092460;28;20027;-68
2022/03/01 01:33:07;;;;;;;22.65;15.70;;;;;;;3.66;55.45;102698.38;5110776;28;20048;-68
2022/03/01 01:35:34;;;;;;;24.25;16.52;;;;;;;3.73;55.54;102700.09;5092025;28;20425;-68
2022/03/01 01:38:01;;;;;;;21.75;14.73;;;;;;;3.60;54.65;102685.25;5097923;28;20051;-68
2022/03/01 01:40:29;;;;;;;23.40;15.93;;;;;;;3.62;56.29;102689.63;5105848;28;20382;-68
2022/03/01 01:42:55;;;;;;;23.92;15.82;;;;;;;3.65;55.92;102694.00;5093251;28;20405;-68
2022/03/01 01:45:22;;;;;;;27.20;17.15;;;;;;;3.66;54.98;102692.25;5093222;28;20751;-67
2022/03/01 01:47:49;;;;;;;22.95;15.45;;;;;;;3.67;55.38;102693.97;5103526;28;20386;-67
2022/03/01 01:50:17;;;;;;;22.15;15.48;;;;;;;3.81;55.32;102689.53;5098875;28;20024;-68
2022/03/01 01:52:47;;;;;;;21.90;16.23;;;;;;;3.69;56.15;102695.72;5096685;28;20157;-68
2022/03/01 01:55:14;;;;;;;22.25;16.38;;;;;;;3.75;54.80;102692.19;5102006;28;20032;-68
2022/03/01 01:57:40;;;;;;;21.73;15.40;;;;;;;3.69;54.37;102679.06;5092822;28;20028;-67
2022/03/01 02:00:07;;;;;;;24.80;16.25;;;;;;;3.73;54.62;102689.56;5091010;28;20554;-68
2022/03/01 02:02:32;;;;;;;24.10;15.45;;;;;;;3.73;54.14;102683.44;5075408;28;20028;-68
2022/03/01 02:04:59;;;;;;;20.40;15.60;;;;;;;3.82;54.30;102692.16;5090262;28;20462;-67
2022/03/01 02:07:25;;;;;;;21.05;15.07;;;;;;;3.78;55.51;102692.19;5093652;28;20036;-67
2022/03/01 02:09:51;;;;;;;24.83;15.73;;;;;;;3.84;54.46;102682.50;5092361;28;20028;-68
2022/03/01 02:12:16;;;;;;;23.60;16.05;;;;;;;3.91;54.54;102679.81;5092325;28;20343;-67
2022/03/01 02:14:44;;;;;;;23.25;15.80;;;;;;;3.90;55.22;102684.22;5090972;28;20483;-67
2022/03/01 02:17:10;;;;;;;22.05;15.85;;;;;;;3.86;54.90;102672.84;5059722;28;20032;-67
2022/03/01 02:19:37;;;;;;;21.08;14.93;;;;;;;3.84;53.75;102682.50;5093879;28;20027;-67
2022/03/01 02:22:06;;;;;;;20.15;15.55;;;;;;;3.90;53.60;102681.59;5099433;28;20102;-68
2022/03/01 02:24:32;;;;;;;22.17;14.95;;;;;;;3.80;53.51;102670.25;5090594;28;20024;-68
2022/03/01 02:27:00;;;;;;;19.77;15.23;;;;;;;3.82;53.82;102683.38;5090451;28;20114;-68
2022/03/01 02:29:27;;;;;;;20.35;15.82;;;;;;;3.79;54.05;102686.03;5091920;28;20085;-68
2022/03/01 02:31:57;;;;;;;21.13;15.38;;;;;;;3.80;53.10;102683.41;5090862;28;20052;-67
2022/03/01 02:34:23;;;;;;;19.60;15.68;;;;;;;3.80;53.49;102685.16;5092088;28;20032;-67
2022/03/01 02:36:49;;;;;;;22.20;14.98;;;;;;;3.84;53.27;102681.63;5094998;28;20038;-67
2022/03/01 02:39:15;;;;;;;24.15;15.52;;;;;;;3.84;53.03;102671.09;5107868;28;20378;-68
2022/03/01 02:41:43;;;;;;;17.60;14.38;;;;;;;3.79;53.82;102679.00;5101787;28;20047;-67
2022/03/01 02:44:10;;;;;;;21.48;15.60;;;;;;;3.92;53.29;102681.59;5104950;28;20019;-68
2022/03/01 02:46:36;;;;;;;20.98;14.63;;;;;;;3.86;53.05;102670.22;5089400;28;20073;-68
2022/03/01 02:49:03;;;;;;;21.52;14.50;;;;;;;3.93;53.08;102671.03;5091320;28;20023;-67
2022/03/01 02:51:29;;;;;;;22.15;15.88;;;;;;;3.90;53.28;102671.06;5091095;28;20024;-67
2022/03/01 02:53:54;;;;;;;20.98;14.68;;;;;;;3.90;52.55;102667.56;5095786;28;20387;-68
2022/03/01 02:56:20;;;;;;;20.42;14.50;;;;;;;3.86;52.49;102670.22;5091683;28;20406;-67
2022/03/01 02:58:46;;;;;;;22.02;13.82;;;;;;;3.90;52.73;102657.91;5090747;28;20020;-67
2022/03/01 03:01:12;;;;;;;21.48;15.05;;;;;;;3.89;52.55;102661.41;5097333;28;20027;-67
2022/03/01 03:03:38;;;;;;;21.30;14.90;;;;;;;3.93;52.08;102665.78;5090872;28;20027;-67
2022/03/01 03:06:04;;;;;;;23.30;16.08;;;;;;;3.98;52.41;102661.34;5089720;28;20050;-67
2022/03/01 03:08:30;;;;;;;20.88;15.02;;;;;;;3.99;52.15;102665.72;5090156;28;20479;-67
2022/03/01 03:10:56;;;;;;;21.38;14.90;;;;;;;3.95;53.79;102664.00;5102027;28;20016;-67
2022/03/01 03:13:21;;;;;;;19.85;14.77;;;;;;;4.02;51.75;102660.44;5101011;28;20064;-68
2022/03/01 03:15:48;;;;;;;20.60;15.60;;;;;;;3.96;52.30;102663.13;5092235;28;20390;-67
2022/03/01 03:18:14;;;;;;;19.33;14.68;;;;;;;4.03;51.99;102661.31;5089988;28;20031;-68
2022/03/01 03:20:40;;;;;;;20.73;14.93;;;;;;;3.94;52.72;102650.84;5096855;28;20026;-68
2022/03/01 03:23:06;;;;;;;19.70;14.68;;;;;;;3.92;51.97;102661.41;5091925;28;20024;-67
2022/03/01 03:25:32;;;;;;;21.35;14.57;;;;;;;3.90;52.91;102663.16;5090933;28;20059;-67
2022/03/01 03:27:58;;;;;;;20.45;14.63;;;;;;;3.95;52.77;102657.88;5090165;28;20513;-67
2022/03/01 03:30:25;;;;;;;19.88;14.77;;;;;;;3.91;53.75;102656.13;5089006;28;20024;-68
2022/03/01 03:32:51;;;;;;;22.17;15.55;;;;;;;3.90;54.13;102652.63;5093302;28;20521;-67
2022/03/01 03:35:19;;;;;;;19.63;14.93;;;;;;;3.96;53.37;102652.59;5090056;28;20123;-65
2022/03/01 03:37:45;;;;;;;22.77;15.35;;;;;;;3.83;53.41;102653.56;5090554;28;20028;-65
2022/03/01 03:40:12;;;;;;;20.75;14.80;;;;;;;3.80;53.40;102657.09;5099505;28;20082;-65
2022/03/01 03:42:38;;;;;;;22.65;15.40;;;;;;;3.79;53.25;102655.31;5090346;28;20031;-65
2022/03/01 03:45:05;;;;;;;22.98;15.23;;;;;;;3.75;54.00;102650.97;5090159;28;20023;-65
2022/03/01 03:47:31;;;;;;;21.70;16.15;;;;;;;3.75;54.55;102658.00;5072298;28;20032;-65
2022/03/01 03:49:57;;;;;;;20.83;14.75;;;;;;;3.56;54.78;102642.31;5090035;28;20028;-68
2022/03/01 03:52:23;;;;;;;21.65;16.38;;;;;;;3.64;55.18;102655.41;5105323;28;20431;-68
2022/03/01 03:54:50;;;;;;;18.25;15.15;;;;;;;3.69;55.18;102650.13;5094868;28;20394;-68
2022/03/01 03:57:15;;;;;;;22.42;15.32;;;;;;;3.67;53.87;102650.13;5097200;28;20106;-67
2022/03/01 03:59:41;;;;;;;22.00;15.45;;;;;;;3.61;53.08;102655.41;5105544;28;20030;-68
2022/03/01 04:02:07;;;;;;;21.52;15.48;;;;;;;3.64;53.63;102653.63;5106962;28;20020;-68
2022/03/01 04:04:34;;;;;;;24.40;16.05;;;;;;;3.66;54.53;102658.03;5101214;28;20020;-68
2022/03/01 04:06:59;;;;;;;23.00;16.48;;;;;;;3.69;53.96;102652.75;5089916;28;20020;-68
2022/03/01 04:09:26;;;;;;;20.90;15.63;;;;;;;3.64;54.29;102652.78;5093056;28;20028;-67
2022/03/01 04:11:52;;;;;;;19.55;15.63;;;;;;;3.62;55.24;102651.94;5092887;28;20030;-67
2022/03/01 04:14:18;;;;;;;23.20;15.93;;;;;;;3.63;54.16;102651.91;5096942;28;20030;-67
2022/03/01 04:16:45;;;;;;;22.00;15.60;;;;;;;3.61;53.93;102660.69;5095904;28;20016;-67
2022/03/01 04:19:17;;;;;;;23.70;15.63;;;;;;;3.61;54.82;102643.13;5095570;28;20027;-68
2022/03/01 04:21:43;;;;;;;26.13;16.40;;;;;;;3.72;54.29;102653.63;5098257;28;20093;-67
2022/03/01 04:24:08;;;;;;;23.13;15.60;;;;;;;3.69;53.59;102663.28;5090876;28;20561;-67
2022/03/01 04:26:34;;;;;;;22.85;15.90;;;;;;;3.68;54.13;102659.78;5088607;28;20397;-67
2022/03/01 04:28:59;;;;;;;22.33;15.43;;;;;;;3.69;55.18;102664.16;5095396;28;20387;-67
2022/03/01 04:31:24;;;;;;;20.88;16.02;;;;;;;3.68;52.86;102654.53;5089142;28;20078;-67
2022/03/01 04:33:54;;;;;;;25.08;16.33;;;;;;;3.71;53.19;102666.78;5092998;28;20031;-68
2022/03/01 04:36:19;;;;;;;23.92;15.85;;;;;;;3.72;53.40;102663.28;5099219;28;20038;-67
2022/03/01 04:38:47;;;;;;;22.35;16.10;;;;;;;3.71;52.80;102661.53;5107011;28;20039;-67
2022/03/01 04:41:13;;;;;;;25.30;16.58;;;;;;;3.73;54.22;102657.97;5101976;28;20024;-68
2022/03/01 04:43:38;;;;;;;26.30;16.33;;;;;;;3.78;53.03;102661.47;5074814;28;20378;-67
2022/03/01 04:46:04;;;;;;;21.63;15.95;;;;;;;3.72;54.30;102656.25;5091391;28;20471;-68
2022/03/01 04:48:30;;;;;;;23.67;15.48;;;;;;;3.67;54.35;102657.16;5093933;28;20035;-67
2022/03/01 04:50:57;;;;;;;23.80;15.90;;;;;;;3.71;53.80;102656.28;5092610;28;20419;-67
2022/03/01 04:53:23;;;;;;;21.70;16.38;;;;;;;3.64;56.07;102651.00;5093801;28;20501;-68
2022/03/01 04:55:50;;;;;;;20.90;15.10;;;;;;;3.75;53.83;102653.59;5094393;28;20043;-68
2022/03/01 04:58:16;;;;;;;23.50;16.33;;;;;;;3.72;54.21;102655.38;5097541;28;20074;-68
2022/03/01 05:00:41;;;;;;;21.40;15.75;;;;;;;3.72;53.88;102650.13;5100970;28;20463;-68
2022/03/01 05:03:07;;;;;;;22.50;15.40;;;;;;;3.78;52.93;102650.94;5101978;28;20110;-67
2022/03/01 05:05:32;;;;;;;21.02;15.68;;;;;;;3.69;54.21;102650.13;5096880;28;20032;-68
2022/03/01 05:07:58;;;;;;;22.67;15.68;;;;;;;3.74;53.32;102651.00;5093147;28;20062;-67
2022/03/01 05:10:24;;;;;;;25.73;16.67;;;;;;;3.77;52.16;102650.97;5093084;28;20032;-68
2022/03/01 05:12:52;;;;;;;26.50;15.82;;;;;;;3.79;52.44;102651.81;5093559;28;20515;-67
2022/03/01 05:15:19;;;;;;;25.05;15.85;;;;;;;3.79;52.32;102649.19;5094310;28;20093;-67
2022/03/01 05:17:46;;;;;;;21.17;15.27;;;;;;;3.82;52.56;102643.91;5093348;28;20044;-68
2022/03/01 05:20:14;;;;;;;24.40;16.20;;;;;;;3.83;52.19;102650.94;5098481;28;20043;-68
2022/03/01 05:22:40;;;;;;;22.75;15.43;;;;;;;3.85;52.75;102649.13;5092996;28;20020;-67
2022/03/01 05:25:09;;;;;;;24.33;16.85;;;;;;;3.85;52.42;102644.78;5104364;28;20027;-67
2022/03/01 05:27:36;;;;;;;21.23;15.38;;;;;;;3.82;52.21;102636.91;5100789;28;20031;-67
2022/03/01 05:30:03;;;;;;;22.17;15.57;;;;;;;3.84;52.31;102632.47;5091498;28;20035;-67
2022/03/01 05:32:28;;;;;;;22.55;15.80;;;;;;;3.83;52.74;102629.88;5099356;28;20048;-68
2022/03/01 05:34:54;;;;;;;22.17;16.52;;;;;;;3.80;52.36;102632.53;5092573;28;20036;-67
2022/03/01 05:37:19;;;;;;;22.83;16.52;;;;;;;3.86;53.05;102628.09;5101178;28;20031;-68
2022/03/01 05:39:45;;;;;;;23.33;16.15;;;;;;;3.80;52.31;102627.25;5104871;28;20111;-68
2022/03/01 05:42:11;;;;;;;21.42;15.40;;;;;;;3.82;52.50;102629.00;5098413;28;20062;-68
2022/03/01 05:44:37;;;;;;;25.45;16.13;;;;;;;3.77;52.59;102615.00;5107175;28;20065;-67
2022/03/01 05:47:03;;;;;;;24.95;16.13;;;;;;;3.79;51.95;102623.72;5106714;28;20023;-68
2022/03/01 05:49:30;;;;;;;23.00;16.90;;;;;;;3.81;52.43;102619.34;5099296;28;20051;-67
2022/03/01 05:51:56;;;;;;;26.67;16.55;;;;;;;3.81;52.06;102619.34;5089988;28;20031;-68
2022/03/01 05:54:22;;;;;;;23.80;16.63;;;;;;;3.79;52.22;102623.72;5092907;28;20510;-67
2022/03/01 05:56:49;;;;;;;22.25;16.02;;;;;;;3.86;52.31;102630.72;5090922;28;20049;-67
2022/03/01 05:59:14;;;;;;;21.98;15.38;;;;;;;3.78;51.96;102622.00;5092329;28;20036;-67
2022/03/01 06:01:40;;;;;;;21.88;15.88;;;;;;;3.73;53.26;102620.28;5096706;28;20386;-67
2022/03/01 06:04:10;;;;;;;21.17;15.43;;;;;;;3.57;51.76;102586.16;5095163;28;20027;-67
2022/03/01 06:06:35;;;;;;;;;;;;;;;3.87;51.92;102619.31;5099059;27;20027;-67
2022/03/01 06:09:02;;;;;;;23.38;16.33;;;;;;;3.73;51.98;102610.63;5090350;28;20011;-67
2022/03/01 06:11:28;;;;;;;24.15;16.35;;;;;;;3.69;51.95;102608.91;5090782;28;20060;-67
2022/03/01 06:13:53;;;;;;;26.75;16.73;;;;;;;3.80;52.20;102620.25;5091052;28;20055;-67
2022/03/01 06:16:19;;;;;;;24.85;16.48;;;;;;;3.63;52.54;102595.78;5077371;28;20057;-67
2022/03/01 06:18:44;;;;;;;23.95;15.88;;;;;;;3.73;52.76;102621.16;5094673;28;20122;-67
2022/03/01 06:21:10;;;;;;;23.23;15.95;;;;;;;3.69;53.48;102619.44;5076376;28;20031;-67
2022/03/01 06:23:38;;;;;;;23.95;17.02;;;;;;;3.66;53.76;102614.19;5090088;28;20028;-67
2022/03/01 06:26:04;;;;;;;22.40;16.40;;;;;;;3.63;53.09;102616.84;5095981;28;20031;-67
2022/03/01 06:28:32;;;;;;;23.00;15.70;;;;;;;3.56;53.06;102618.63;5092026;28;20093;-67
2022/03/01 06:30:59;;;;;;;21.85;16.23;;;;;;;3.54;54.35;102616.88;5099941;28;20082;-67
2022/03/01 06:33:26;;;;;;;24.27;16.58;;;;;;;3.54;53.33;102623.00;5092064;28;20150;-67
2022/03/01 06:35:51;;;;;;;22.67;16.83;;;;;;;3.46;55.02;102630.06;5091379;28;20184;-67
2022/03/01 06:38:17;;;;;;;21.80;16.10;;;;;;;3.51;55.58;102632.69;5099546;28;20039;-67
2022/03/01 06:40:43;;;;;;;23.70;16.50;;;;;;;3.55;54.69;102640.53;5098927;28;20027;-67
2022/03/01 06:43:09;;;;;;;22.75;16.85;;;;;;;3.45;56.10;102651.13;5090579;28;20133;-67
2022/03/01 06:45:34;;;;;;;23.35;17.10;;;;;;;3.38;56.72;102645.00;5098187;28;20475;-67
2022/03/01 06:48:00;;;;;;;28.52;18.70;;;;;;;3.34;56.22;102636.25;5100611;28;20032;-67
2022/03/01 06:50:26;;;;;;;27.13;16.80;;;;;;;3.40;56.71;102632.72;5090646;28;20459;-67
2022/03/01 06:52:52;;;;;;;25.50;17.40;;;;;;;3.49;56.92;102642.34;5095941;28;20022;-68
2022/03/01 06:55:19;;;;;;;23.10;17.38;;;;;;;3.62;55.20;102649.28;5090301;28;20036;-67
2022/03/01 06:57:45;;;;;;;24.25;17.13;;;;;;;3.60;55.09;102657.19;5095013;28;20525;-67
2022/03/01 07:00:12;;;;;;;27.60;18.48;;;;;;;3.62;55.01;102660.69;5087362;28;20036;-67
2022/03/01 07:02:38;;;;;;;25.25;17.65;;;;;;;3.64;54.97;102663.28;5106629;28;20019;-68
2022/03/01 07:05:09;;;;;;;25.73;17.88;;;;;;;3.73;54.98;102660.63;5092726;28;20080;-69
2022/03/01 07:07:37;;;;;;;27.15;18.42;;;;;;;3.78;54.32;102661.47;5093749;28;20020;-67
2022/03/01 07:10:04;;;;;;;26.50;18.45;;;;;;;3.76;54.32;102657.97;5101661;28;20039;-67
2022/03/01 07:12:30;;;;;;;26.98;19.20;;;;;;;3.89;54.49;102668.44;5091255;28;20024;-67
2022/03/01 07:14:57;;;;;;;28.60;19.08;;;;;;;3.86;54.31;102659.69;5090231;28;20102;-68
2022/03/01 07:17:22;;;;;;;30.45;19.92;;;;;;;3.97;53.96;102661.34;5092686;28;20103;-67
2022/03/01 07:19:49;;;;;;;27.92;19.73;;;;;;;3.99;54.18;102656.97;5089707;28;20512;-67
2022/03/01 07:22:15;;;;;;;26.17;18.77;;;;;;;3.96;53.88;102646.44;5105037;28;20051;-67
2022/03/01 07:24:42;;;;;;;27.55;19.95;;;;;;;3.95;53.43;102644.72;5088944;28;20024;-67
2022/03/01 07:27:08;;;;;;;29.10;19.20;;;;;;;4.08;53.44;102665.66;5098066;28;20020;-67
2022/03/01 07:29:34;;;;;;;31.40;20.10;;;;;;;4.09;53.07;102670.06;5090724;28;20028;-67
2022/03/01 07:32:00;;;;;;;25.77;18.42;;;;;;;4.12;52.94;102669.19;5089643;28;20586;-67
2022/03/01 07:34:26;;;;;;;31.85;18.98;;;;;;;4.06;52.24;102666.59;5090661;28;20024;-67
2022/03/01 07:36:52;;;;;;;28.40;19.50;;;;;;;4.10;51.80;102673.56;5103495;28;20030;-67
2022/03/01 07:39:17;;;;;;;28.08;19.65;;;;;;;4.14;52.36;102674.41;5089276;28;20423;-68
2022/03/01 07:41:42;;;;;;;24.98;17.92;;;;;;;4.17;51.97;102685.78;5089324;28;20490;-67
2022/03/01 07:44:08;;;;;;;26.40;19.13;;;;;;;4.20;51.64;102692.81;5106617;28;20091;-67
2022/03/01 07:46:34;;;;;;;27.10;17.63;;;;;;;4.25;52.12;102688.38;5094693;28;20039;-67
2022/03/01 07:48:59;;;;;;;25.33;18.40;;;;;;;4.24;51.83;102686.66;5090532;28;20055;-67
2022/03/01 07:51:25;;;;;;;29.45;18.65;;;;;;;4.26;52.13;102684.84;5103619;28;20028;-67
2022/03/01 07:53:51;;;;;;;26.92;18.55;;;;;;;4.22;53.11;102670.84;5094469;28;20024;-67
2022/03/01 07:56:22;;;;;;;25.60;18.48;;;;;;;4.23;52.03;102672.59;5090752;28;20063;-67
2022/03/01 07:58:48;;;;;;;24.63;17.65;;;;;;;4.16;52.63;102673.53;5106034;28;20028;-67
2022/03/01 08:01:15;;;;;;;26.00;18.13;;;;;;;4.14;53.30;102669.16;5088575;28;20417;-67
2022/03/01 08:03:40;;;;;;;28.88;19.23;;;;;;;4.14;53.37;102669.16;5088476;28;20016;-67
2022/03/01 08:06:06;;;;;;;25.13;18.10;;;;;;;4.13;53.10;102672.69;5088882;28;20028;-68
2022/03/01 08:08:32;;;;;;;23.80;17.80;;;;;;;4.14;53.18;102679.69;5094368;28;20050;-67
2022/03/01 08:10:58;;;;;;;26.05;19.38;;;;;;;4.11;52.93;102670.03;5088871;28;20020;-68
2022/03/01 08:13:24;;;;;;;28.35;19.73;;;;;;;4.14;52.31;102677.03;5098618;28;20036;-68
2022/03/01 08:15:50;;;;;;;29.42;18.23;;;;;;;4.21;52.47;102690.19;5093451;28;20027;-67
2022/03/01 08:18:16;;;;;;;27.60;18.85;;;;;;;4.27;52.12;102676.97;5091598;28;20490;-67
2022/03/01 08:20:41;;;;;;;24.67;18.05;;;;;;;4.37;53.00;102683.03;5100481;28;20036;-67
2022/03/01 08:23:07;;;;;;;26.20;19.35;;;;;;;4.43;52.97;102687.38;5094737;28;20409;-67
2022/03/01 08:25:33;;;;;;;27.45;19.05;;;;;;;4.43;52.01;102690.88;5091901;28;20025;-65
2022/03/01 08:27:59;;;;;;;27.80;18.92;;;;;;;4.52;52.48;102685.53;5089711;28;20080;-65
2022/03/01 08:30:26;;;;;;;27.48;18.80;;;;;;;4.54;52.65;102693.44;5105721;28;20028;-65
2022/03/01 08:32:52;;;;;;;25.63;18.08;;;;;;;4.55;52.34;102693.41;5097413;28;20126;-65
2022/03/01 08:35:18;;;;;;;25.92;17.60;;;;;;;4.63;52.80;102687.22;5092333;28;20020;-65
2022/03/01 08:37:44;;;;;;;24.80;18.10;;;;;;;4.64;51.82;102692.47;5093507;28;20036;-65
2022/03/01 08:40:12;;;;;;;27.00;17.30;;;;;;;4.60;51.92;102692.50;5093423;28;20441;-65
2022/03/01 08:42:40;;;;;;;25.98;17.95;;;;;;;4.70;51.29;102699.44;5093230;28;20131;-65
2022/03/01 08:45:06;;;;;;;25.90;18.67;;;;;;;4.69;52.00;102698.56;5091243;28;20032;-65
2022/03/01 08:47:32;;;;;;;24.73;17.17;;;;;;;4.73;51.69;102704.69;5093146;28;20032;-65
2022/03/01 08:49:58;;;;;;;26.02;18.52;;;;;;;4.75;52.02;102702.91;5092516;28;20092;-65
2022/03/01 08:52:24;;;;;;;25.73;18.00;;;;;;;4.75;51.88;102701.16;5093441;28;20284;-65
2022/03/01 08:54:52;;;;;;;27.25;18.73;;;;;;;4.83;51.78;102698.47;5094291;28;20039;-65
2022/03/01 08:57:18;;;;;;;28.83;19.98;;;;;;;5.04;51.59;102710.56;5093399;28;20605;-65
2022/03/01 08:59:43;;;;;;;28.63;18.67;;;;;;;5.08;51.11;102708.75;5093188;28;20019;-65
2022/03/01 09:02:09;;;;;;;24.83;17.88;;;;;;;5.18;50.86;102719.22;5092978;28;20019;-65
2022/03/01 09:04:35;;;;;;;27.98;18.83;;;;;;;5.34;51.60;102716.41;5095287;28;20020;-65
2022/03/01 09:07:03;;;;;;;28.08;17.95;;;;;;;5.44;50.75;102707.47;5093046;28;20405;-65
2022/03/01 09:09:30;;;;;;;29.58;17.65;;;;;;;5.62;49.79;102720.47;5092949;28;20112;-65
2022/03/01 09:11:55;;;;;;;26.70;17.50;;;;;;;5.65;48.79;102722.19;5091741;28;20056;-65
2022/03/01 09:14:21;;;;;;;26.15;17.25;;;;;;;5.70;49.51;102718.59;5090968;28;20498;-65
2022/03/01 09:16:46;;;;;;;24.25;17.70;;;;;;;5.82;49.11;102724.59;5089544;28;20024;-65
2022/03/01 09:19:14;;;;;;;27.73;16.48;;;;;;;5.87;49.08;102710.44;5099105;28;20074;-65
2022/03/01 09:21:39;;;;;;;26.55;17.73;;;;;;;5.89;48.42;102713.09;5091394;28;20078;-65
2022/03/01 09:24:05;;;;;;;21.95;16.23;;;;;;;5.92;48.48;102713.03;5096160;28;20440;-65
2022/03/01 09:26:33;;;;;;;24.23;16.65;;;;;;;5.90;48.78;102706.91;5097912;28;20054;-65
2022/03/01 09:28:58;;;;;;;24.75;16.65;;;;;;;5.87;48.42;102709.59;5091519;28;20035;-65
2022/03/01 09:31:24;;;;;;;23.83;16.27;;;;;;;5.82;48.50;102712.28;5090508;28;20078;-65
2022/03/01 09:33:50;;;;;;;23.77;17.02;;;;;;;5.83;48.28;102706.13;5091317;28;20048;-65
2022/03/01 09:36:18;;;;;;;25.35;16.80;;;;;;;5.89;48.93;102708.69;5092153;28;20043;-66
2022/03/01 09:38:44;;;;;;;25.48;16.60;;;;;;;5.95;48.83;102698.97;5099366;28;20086;-65
2022/03/01 09:41:12;;;;;;;22.30;16.33;;;;;;;6.02;48.77;102692.69;5095144;28;20023;-65
2022/03/01 09:43:39;;;;;;;22.73;16.38;;;;;;;6.17;48.51;102704.81;5091086;28;20956;-65
2022/03/01 09:46:06;;;;;;;24.25;17.42;;;;;;;6.27;48.17;102703.78;5091956;28;20042;-65
2022/03/01 09:48:32;;;;;;;21.67;16.33;;;;;;;6.34;47.76;102716.00;5093363;28;20020;-65
2022/03/01 09:51:00;;;;;;;21.45;16.05;;;;;;;6.41;48.00;102725.56;5092093;28;20028;-66
2022/03/01 09:53:26;;;;;;;25.88;16.90;;;;;;;6.46;47.64;102723.72;5091656;28;20020;-66
2022/03/01 09:55:52;;;;;;;23.20;17.90;;;;;;;6.45;48.11;102710.56;5092160;28;20117;-66
2022/03/01 09:58:18;;;;;;;24.90;16.63;;;;;;;6.51;46.94;102721.88;5089237;28;20382;-66
2022/03/01 10:00:47;;;;;;;24.60;16.45;;;;;;;6.48;46.96;102735.16;5089169;28;20032;-66
2022/03/01 10:03:20;;;;;;;22.80;17.30;;;;;;;6.49;47.86;102738.66;5100212;28;20020;-66
2022/03/01 10:05:48;;;;;;;23.83;16.50;;;;;;;6.49;48.44;102741.31;5090212;28;20028;-66
2022/03/01 10:08:22;;;;;;;20.92;15.93;;;;;;;6.54;47.81;102736.84;5092154;28;20020;-66
2022/03/01 10:10:50;;;;;;;23.65;15.75;;;;;;;6.57;47.04;102732.38;5094725;28;20107;-66
2022/03/01 10:13:24;;;;;;;23.30;16.20;;;;;;;6.59;48.00;102735.88;5090406;28;20107;-66
2022/03/01 10:16:17;;;;;;;23.83;16.00;;;;;;;6.59;47.27;102703.28;5090164;28;20047;-66
2022/03/01 10:18:49;;;;;;;23.80;16.27;;;;;;;6.81;47.18;102735.50;5090888;28;20081;-66
2022/03/01 10:21:16;;;;;;;22.40;16.58;;;;;;;6.88;46.74;102728.31;5090108;28;20498;-66
2022/03/01 10:23:50;;;;;;;22.73;16.33;;;;;;;6.88;46.43;102723.91;5090428;28;20580;-66
2022/03/01 10:26:21;;;;;;;26.23;17.75;;;;;;;6.89;46.84;102720.38;5091338;28;20519;-66
2022/03/01 10:28:48;;;;;;;36.00;17.90;;;;;;;6.96;46.88;102724.66;5092303;28;20403;-66
2022/03/01 10:31:14;;;;;;;20.90;15.90;;;;;;;7.08;47.04;102725.34;5100114;28;20020;-66
2022/03/01 10:34:05;;;;;;;21.15;16.33;;;;;;;7.13;45.65;102720.84;5092379;28;20531;-66
2022/03/01 10:36:35;;;;;;;23.25;16.08;;;;;;;7.31;46.09;102712.53;5089733;28;20028;-66
2022/03/01 10:39:07;;;;;;;24.58;16.75;;;;;;;7.52;45.65;102705.94;5091335;28;20020;-66
2022/03/01 10:41:36;;;;;;;23.13;16.20;;;;;;;7.80;44.74;102713.34;5088654;28;20054;-66
2022/03/01 10:44:03;;;;;;;22.13;16.67;;;;;;;7.80;44.20;102710.69;5091290;28;20032;-67
2022/03/01 10:46:40;;;;;;;30.33;19.88;;;;;;;7.90;44.19;102714.88;5090826;28;20286;-67
2022/03/01 10:49:09;;;;;;;30.00;18.38;;;;;;;8.04;44.74;102704.84;5089704;28;20497;-66
2022/03/01 10:52:01;;;;;;;23.85;16.92;;;;;;;8.19;44.19;102719.53;5090174;28;20020;-66
2022/03/01 10:54:33;;;;;;;24.25;16.65;;;;;;;8.32;43.07;102722.75;5086012;28;20044;-66
2022/03/01 10:57:01;;;;;;;20.70;16.75;;;;;;;8.59;43.59;102726.56;5093752;28;20055;-67
2022/03/01 10:59:31;;;;;;;23.88;16.30;;;;;;;8.84;43.29;102732.13;5098731;28;20501;-67
2022/03/01 11:01:57;;;;;;;20.65;15.70;;;;;;;9.09;42.94;102724.41;5072431;28;20028;-66
2022/03/01 11:04:25;;;;;;;23.30;17.33;;;;;;;9.09;42.29;102732.38;5090449;28;20383;-67
2022/03/01 11:06:53;;;;;;;27.75;16.10;;;;;;;8.90;42.26;102724.00;5091501;28;20020;-67
2022/03/01 11:09:21;;;;;;;25.65;17.00;;;;;;;8.85;42.87;102731.22;5093846;28;20032;-66
2022/03/01 11:11:48;;;;;;;24.48;17.13;;;;;;;8.78;42.26;102726.97;5095237;28;20116;-66
2022/03/01 11:14:20;;;;;;;21.98;17.08;;;;;;;8.75;42.94;102725.28;5096317;28;20042;-65